Lake Worth, FL (33460)

6:56 AM EST on December 28, 2014 (GMT -0500)
NOS_NWLON Lake Worth Pier, FL NWLON | Change Station
CLOSE
Current Station
Personal Weather Station
Location: Lake Worth, FL
Elevation: 0 ft
Nearby Weather Stations
Active Advisory: Coastal Hazard Statement

Elev 0 ft 26.61 °N, 80.03 °W | Updated 26 minutes ago

Scattered Clouds
Scattered Clouds
--
Feels Like --
N
3.0
Wind Variable Wind from NW
Gusts 3.0 mph

Today
High -- | Low -- °F
--% Chance of Precip.
Yesterday
High -- | Low -- °F
Precip. -- in
7:07 AM 5:36 PM
Waxing Crescent, 47% visible
Pressure 30.14 in
Visibility 8.0 miles
Clouds Few 2500 ft
Scattered Clouds 25000 ft
Dew Point Not available.
Humidity Not available.
Rainfall -999.00 in
Snow Depth Not available.
UV 0 out of 12
Pollen 4.90 out of 12
Air Quality Not available.
Flu Activity Not available.
METAR KPBI 281053Z 00000KT 8SM FEW025 SCT250 19/18 A3014 RMK AO2 SLP204 T01890183

More Conditions Fewer Conditions

Pressure 30.14 in
Visibility 8.0 miles
Clouds Few 2500 ft
Scattered Clouds 25000 ft
Dew Point Not available.
Humidity Not available.
Rainfall -999.00 in
Snow Depth Not available.
UV 0 out of 12
Pollen 4.90 out of 12
Air Quality Not available.
Flu Activity Not available.
METAR KPBI 281053Z 00000KT 8SM FEW025 SCT250 19/18 A3014 RMK AO2 SLP204 T01890183

More Conditions Fewer Conditions

10-Day Weather Forecast

Almanac

Astronomy

Dec. 28, 2014 Rise Set
Actual Time
Civil Twilight
Nautical Twilight
Astronomical Twilight
Moon
Length of Visible Light
Length of Day
Tomorrow will be .
, % of the Moon is Illuminated

Today's Extremes

State Highs State Lows

Community

WunderPhotos

Upload Photos

1,781,232 photos uploaded!

WunderBlogs® & News

Nearby

Air Quality

  Air Quality AQ Index Pollutant
Not available.

Snow Depth

Station Depth Elevation

Earthquake Activity

City Distance Mag. Time & Date
Minimum magnitude displayed is 2.5.

Coastal Water Temperatures

Place Temperature

Nearby Weather Stations